Time;durP1;ratioP1;P1;durP2;ratioP2;P2;SDS_P1;SDS_P2;PMS_P1;PMS_P2;Temp;Humidity;BMP_temperature;BMP_pressure;BME280_temperature;BME280_humidity;BME280_pressure;Samples;Min_cycle;Max_cycle;Signal;HPM_P1;HPM_P2
2023/01/12 00:01:56;;;;;;;8.30;0.73;;;7.60;99.90;;;;;;5016331;28;20418;-92
2023/01/12 00:04:22;;;;;;;2.80;0.93;;;7.60;99.90;;;;;;5014016;28;20426;-94
2023/01/12 00:06:48;;;;;;;4.33;1.27;;;7.70;99.90;;;;;;4997087;28;20426;-95
2023/01/12 00:09:13;;;;;;;4.60;0.97;;;7.60;99.90;;;;;;5001305;28;20662;-95
2023/01/12 00:11:39;;;;;;;9.60;1.20;;;7.70;99.90;;;;;;4999533;28;20190;-83
2023/01/12 00:14:06;;;;;;;10.00;1.73;;;7.80;99.90;;;;;;5015860;28;20177;-94
2023/01/12 00:16:38;;;;;;;6.77;1.20;;;7.80;99.90;;;;;;5017755;28;20463;-86
2023/01/12 00:19:11;;;;;;;8.60;1.67;;;7.80;99.90;;;;;;5005566;28;20484;-84
2023/01/12 00:22:07;;;;;;;4.97;1.40;;;7.80;99.90;;;;;;5000671;28;20426;-95
2023/01/12 00:24:51;;;;;;;6.13;1.27;;;7.70;99.90;;;;;;4996540;28;20499;-84
2023/01/12 00:27:19;;;;;;;4.23;1.03;;;7.80;99.90;;;;;;4980402;28;20425;-95
2023/01/12 00:29:44;;;;;;;6.60;1.50;;;7.80;99.90;;;;;;4998354;28;20417;-94
2023/01/12 00:32:16;;;;;;;6.83;0.93;;;7.70;99.90;;;;;;4996870;28;20746;-94
2023/01/12 00:34:44;;;;;;;8.60;1.27;;;7.70;99.90;;;;;;4999787;28;20179;-93
2023/01/12 00:37:10;;;;;;;7.40;1.40;;;7.70;99.90;;;;;;4996906;28;20430;-92
2023/01/12 00:39:36;;;;;;;3.53;1.40;;;7.70;99.90;;;;;;4998160;28;20426;-95
2023/01/12 00:47:41;;;;;;;4.23;0.50;;;7.80;99.90;;;;;;4957883;28;20429;-92
2023/01/12 00:50:07;;;;;;;2.87;0.97;;;7.80;99.90;;;;;;4998655;28;20433;-86
2023/01/12 00:52:33;;;;;;;3.37;0.70;;;7.90;99.90;;;;;;4998902;28;20429;-95
2023/01/12 00:54:58;;;;;;;8.40;1.20;;;7.80;99.90;;;;;;4999535;28;20528;-96
2023/01/12 00:57:24;;;;;;;5.70;0.77;;;7.70;99.90;;;;;;4999606;28;20195;-93
2023/01/12 00:59:53;;;;;;;5.80;0.90;;;7.70;99.90;;;;;;4996794;28;20189;-93
2023/01/12 01:02:19;;;;;;;5.93;1.50;;;7.60;99.90;;;;;;4995202;28;20207;-91
2023/01/12 01:04:44;;;;;;;5.57;1.10;;;7.50;99.90;;;;;;4994594;28;20481;-93
2023/01/12 01:07:14;;;;;;;8.80;1.07;;;7.50;99.90;;;;;;4994993;28;20180;-92
2023/01/12 01:09:40;;;;;;;3.40;0.80;;;7.60;99.90;;;;;;4995104;28;20178;-91
2023/01/12 01:12:06;;;;;;;7.67;1.70;;;7.50;99.90;;;;;;4995029;28;20952;-89
2023/01/12 01:14:31;;;;;;;3.93;1.07;;;7.60;99.90;;;;;;4994017;28;20204;-92
2023/01/12 01:16:57;;;;;;;15.13;1.27;;;7.70;99.90;;;;;;4994267;28;20590;-85
2023/01/12 01:19:23;;;;;;;4.77;0.83;;;7.70;99.90;;;;;;4994394;28;20318;-96
2023/01/12 01:21:48;;;;;;;1.53;0.43;;;7.80;99.90;;;;;;4994664;28;20262;-88
2023/01/12 01:24:14;;;;;;;7.33;0.60;;;7.80;99.90;;;;;;4994937;28;20269;-93
2023/01/12 01:26:41;;;;;;;10.33;1.57;;;7.80;99.90;;;;;;4995173;28;20193;-86
2023/01/12 01:29:07;;;;;;;6.27;1.13;;;7.80;99.90;;;;;;4995879;28;20496;-93
2023/01/12 01:31:33;;;;;;;1.00;0.40;;;7.80;99.90;;;;;;5011303;28;20457;-92
2023/01/12 01:33:58;;;;;;;7.17;1.60;;;7.80;99.90;;;;;;5011201;28;20477;-94
2023/01/12 01:36:44;;;;;;;7.07;0.60;;;7.80;99.90;;;;;;5010944;28;20423;-91
2023/01/12 01:39:10;;;;;;;3.43;0.67;;;7.70;99.90;;;;;;4994079;28;20219;-91
2023/01/12 01:41:40;;;;;;;6.70;1.37;;;7.70;99.90;;;;;;4994686;28;20426;-93
2023/01/12 01:44:28;;;;;;;5.00;1.57;;;7.90;99.90;;;;;;4994507;28;20932;-93
2023/01/12 01:47:20;;;;;;;5.83;0.43;;;7.90;99.90;;;;;;4994649;28;20451;-88
2023/01/12 01:49:53;;;;;;;3.87;0.47;;;7.80;99.90;;;;;;4979333;28;20519;-91
2023/01/12 01:52:38;;;;;;;7.47;1.40;;;7.90;99.90;;;;;;4962815;28;20425;-93
2023/01/12 01:55:53;;;;;;;2.47;0.67;;;8.00;99.90;;;;;;5008254;28;20432;-87
2023/01/12 01:58:27;;;;;;;4.70;0.80;;;8.00;99.90;;;;;;4959397;28;20482;-95
2023/01/12 02:00:53;;;;;;;8.37;0.87;;;8.00;99.90;;;;;;4975288;28;20431;-94
2023/01/12 02:03:23;;;;;;;1.83;0.20;;;8.00;99.90;;;;;;4975177;28;20440;-95
2023/01/12 02:05:49;;;;;;;3.23;0.67;;;8.10;99.90;;;;;;4975195;28;20502;-89
2023/01/12 02:08:34;;;;;;;4.17;0.40;;;8.00;99.90;;;;;;4976334;28;21014;-95
2023/01/12 02:11:01;;;;;;;3.63;0.83;;;7.90;99.90;;;;;;4976142;28;20801;-84
2023/01/12 02:16:24;;;;;;;4.43;0.73;;;8.00;99.90;;;;;;4977524;28;20467;-93
2023/01/12 02:19:00;;;;;;;4.93;0.60;;;8.10;99.90;;;;;;4975422;28;20990;-94
2023/01/12 02:21:52;;;;;;;4.87;0.73;;;8.10;99.90;;;;;;4976158;28;20416;-93
2023/01/12 02:25:16;;;;;;;10.00;1.87;;;8.10;99.90;;;;;;4975370;28;20421;-92
2023/01/12 02:27:50;;;;;;;3.70;1.00;;;8.10;99.90;;;;;;4959031;28;20992;-95
2023/01/12 02:30:30;;;;;;;6.00;0.90;;;8.10;99.90;;;;;;4960337;28;20422;-93
2023/01/12 02:33:01;;;;;;;4.20;0.97;;;8.10;99.90;;;;;;4970710;28;20414;-93
2023/01/12 02:36:00;;;;;;;3.30;0.87;;;8.20;99.90;;;;;;4975058;28;20987;-94
2023/01/12 02:38:56;;;;;;;3.63;0.80;;;8.10;99.90;;;;;;4976754;28;20474;-94
2023/01/12 02:44:59;;;;;;;1.90;0.70;;;8.10;99.90;;;;;;4976001;28;20777;-94
2023/01/12 02:47:45;;;;;;;5.17;0.63;;;8.10;99.90;;;;;;4945948;28;21219;-92
2023/01/12 02:50:17;;;;;;;3.73;0.70;;;8.00;99.90;;;;;;4996436;28;20413;-94
2023/01/12 02:53:33;;;;;;;4.27;1.13;;;8.00;99.90;;;;;;4999666;28;20433;-89
2023/01/12 02:56:01;;;;;;;2.47;0.40;;;8.00;99.90;;;;;;4999438;28;20512;-95
2023/01/12 02:58:29;;;;;;;5.27;1.07;;;7.90;99.90;;;;;;5015792;28;20468;-94
2023/01/12 03:00:57;;;;;;;4.53;0.37;;;8.00;99.90;;;;;;4998732;28;20483;-94
2023/01/12 03:03:24;;;;;;;3.10;0.47;;;8.00;99.90;;;;;;4998079;28;20424;-93
2023/01/12 03:05:50;;;;;;;4.50;1.00;;;7.90;99.90;;;;;;5015161;28;20422;-95
2023/01/12 03:08:22;;;;;;;3.67;0.60;;;7.90;99.90;;;;;;4998525;28;20426;-92
2023/01/12 03:11:06;;;;;;;2.10;0.37;;;7.90;99.90;;;;;;4998026;28;20419;-92
2023/01/12 03:13:35;;;;;;;5.57;0.40;;;7.90;99.90;;;;;;5014574;28;20435;-93
2023/01/12 03:16:03;;;;;;;0.83;0.50;;;7.70;99.90;;;;;;4998923;28;20465;-85
2023/01/12 03:18:48;;;;;;;2.23;0.40;;;7.80;99.90;;;;;;4998233;28;20478;-94
2023/01/12 03:21:21;;;;;;;2.13;0.63;;;7.90;99.90;;;;;;4998614;28;20417;-95
2023/01/12 03:23:53;;;;;;;4.97;0.97;;;7.80;99.90;;;;;;5015540;28;20456;-94
2023/01/12 03:26:22;;;;;;;1.63;0.20;;;7.80;99.90;;;;;;5015613;28;20425;-96
2023/01/12 03:28:53;;;;;;;3.70;0.77;;;7.80;99.90;;;;;;4999927;28;20419;-94
2023/01/12 03:31:20;;;;;;;2.27;0.80;;;7.70;99.90;;;;;;4998835;28;20523;-92
2023/01/12 03:33:46;;;;;;;2.10;0.77;;;7.60;99.90;;;;;;4997953;28;20433;-94
2023/01/12 03:36:21;;;;;;;2.73;0.70;;;7.60;99.90;;;;;;5014396;28;20426;-94
2023/01/12 03:39:00;;;;;;;3.17;0.40;;;7.60;99.90;;;;;;4998271;28;20289;-94
2023/01/12 03:41:55;;;;;;;4.60;0.77;;;7.80;99.90;;;;;;5010402;28;20434;-85
2023/01/12 03:44:35;;;;;;;4.33;0.40;;;7.80;99.90;;;;;;4996971;28;20464;-92
2023/01/12 03:47:07;;;;;;;2.50;0.40;;;;;;;;;;4998234;28;20403;-94
2023/01/12 03:49:41;;;;;;;2.30;0.30;;;;;;;;;;5015889;28;20406;-85
2023/01/12 03:52:10;;;;;;;1.60;0.20;;;7.80;99.90;;;;;;5018955;28;20409;-90
2023/01/12 03:54:38;;;;;;;1.70;0.40;;;7.80;99.90;;;;;;5017793;28;20499;-85
2023/01/12 03:57:11;;;;;;;3.70;0.50;;;7.80;99.90;;;;;;5018341;28;20424;-90
2023/01/12 03:59:37;;;;;;;2.70;0.47;;;7.90;99.90;;;;;;5019389;28;20426;-92
2023/01/12 04:02:03;;;;;;;4.20;0.80;;;7.90;99.90;;;;;;5013133;28;20423;-86
2023/01/12 04:04:30;;;;;;;4.90;1.20;;;;;;;;;;5028267;28;20283;-92
2023/01/12 04:06:55;;;;;;;1.37;0.43;;;7.90;99.90;;;;;;5013095;28;20156;-92
2023/01/12 04:09:21;;;;;;;1.10;0.63;;;7.90;99.90;;;;;;5014277;28;20433;-92
2023/01/12 04:14:34;;;;;;;1.03;0.50;;;7.90;99.90;;;;;;5016051;28;20413;-92
2023/01/12 04:16:59;;;;;;;2.50;0.30;;;7.90;99.90;;;;;;5016247;28;20474;-91
2023/01/12 04:19:25;;;;;;;5.83;0.97;;;7.90;99.90;;;;;;5014133;28;20501;-92
2023/01/12 04:24:39;;;;;;;5.57;0.90;;;;;;;;;;5016200;28;20667;-88
2023/01/12 04:27:06;;;;;;;2.93;0.60;;;;;;;;;;5014743;28;20415;-92
2023/01/12 04:29:34;;;;;;;4.23;0.67;;;7.90;99.90;;;;;;5015203;28;20433;-86
2023/01/12 04:31:59;;;;;;;3.33;0.83;;;8.50;99.90;;;;;;5011140;28;20466;-94
2023/01/12 04:34:25;;;;;;;1.10;0.53;;;7.90;99.90;;;;;;5014073;28;20430;-93
2023/01/12 04:36:50;;;;;;;4.63;0.77;;;7.80;99.90;;;;;;4997699;28;20185;-94
2023/01/12 04:39:16;;;;;;;3.03;0.70;;;7.80;99.90;;;;;;4997916;28;20702;-95
2023/01/12 04:41:41;;;;;;;1.73;0.50;;;7.90;99.90;;;;;;4997477;28;20182;-93
2023/01/12 04:44:07;;;;;;;4.93;1.00;;;8.00;99.90;;;;;;4997664;28;20251;-91
2023/01/12 04:46:33;;;;;;;2.10;0.63;;;;;;;;;;4997946;28;20186;-93
2023/01/12 04:48:59;;;;;;;2.93;0.50;;;;;;;;;;4997334;28;20183;-93
2023/01/12 04:51:25;;;;;;;2.47;0.43;;;;;;;;;;4996064;28;20509;-93
2023/01/12 04:53:51;;;;;;;2.97;0.47;;;;;;;;;;4995723;28;20480;-94
2023/01/12 04:56:17;;;;;;;2.00;0.20;;;;;;;;;;4996300;28;20446;-94
2023/01/12 04:58:44;;;;;;;3.37;0.70;;;;;;;;;;4996843;28;20562;-94
2023/01/12 05:01:14;;;;;;;2.63;0.57;;;;;;;;;;4996598;28;20434;-93
2023/01/12 05:03:41;;;;;;;1.73;0.40;;;;;;;;;;4995419;28;20929;-94
2023/01/12 05:06:06;;;;;;;3.83;0.43;;;8.10;99.90;;;;;;4996664;28;20411;-93
2023/01/12 05:11:21;;;;;;;1.43;0.53;;;;;;;;;;5003680;28;20190;-94
2023/01/12 05:13:49;;;;;;;3.57;0.43;;;8.00;99.90;;;;;;4998280;28;20403;-93
2023/01/12 05:16:17;;;;;;;3.93;1.03;;;8.10;99.90;;;;;;4996613;28;20463;-93
2023/01/12 05:18:44;;;;;;;6.63;0.57;;;8.10;99.90;;;;;;4994926;28;20470;-93
2023/01/12 05:21:14;;;;;;;2.60;0.63;;;8.10;99.90;;;;;;4996089;28;20424;-92
2023/01/12 05:23:40;;;;;;;3.70;0.80;;;8.10;99.90;;;;;;4996151;28;20408;-92
2023/01/12 05:26:06;;;;;;;2.23;0.27;;;8.10;99.90;;;;;;5011321;28;21001;-91
2023/01/12 05:28:32;;;;;;;10.43;0.37;;;8.10;99.90;;;;;;4995941;28;20179;-91
2023/01/12 05:31:04;;;;;;;4.03;0.73;;;;;;;;;;4994854;28;21010;-90
2023/01/12 05:33:33;;;;;;;2.40;0.53;;;;;;;;;;4995735;28;20420;-92
2023/01/12 05:36:04;;;;;;;2.47;0.53;;;;;;;;;;4995870;28;20465;-94
2023/01/12 05:38:32;;;;;;;2.50;0.77;;;;;;;;;;4996310;28;20567;-93
2023/01/12 05:41:06;;;;;;;6.20;0.60;;;;;;;;;;4994841;28;20454;-92
2023/01/12 05:43:50;;;;;;;4.50;1.13;;;;;;;;;;4995795;28;20395;-94
2023/01/12 05:46:28;;;;;;;2.80;0.83;;;;;;;;;;4994672;28;20809;-93
2023/01/12 05:48:55;;;;;;;3.20;0.67;;;;;;;;;;4994310;28;20515;-91
2023/01/12 05:51:23;;;;;;;2.10;0.67;;;;;;;;;;4995618;28;20513;-93
2023/01/12 05:53:50;;;;;;;4.67;0.73;;;;;;;;;;4995949;28;20466;-93
2023/01/12 05:56:16;;;;;;;3.17;0.50;;;;;;;;;;4995793;28;20831;-88
2023/01/12 05:58:46;;;;;;;4.20;0.80;;;;;;;;;;4994559;28;20888;-94
2023/01/12 06:01:13;;;;;;;5.17;0.47;;;;;;;;;;4994258;28;20416;-93
2023/01/12 06:03:44;;;;;;;3.27;1.30;;;;;;;;;;4995145;28;20509;-93
2023/01/12 06:06:11;;;;;;;2.13;0.90;;;;;;;;;;4994335;28;20414;-91
2023/01/12 06:08:37;;;;;;;3.90;0.90;;;;;;;;;;4994244;28;20874;-95
2023/01/12 06:11:03;;;;;;;2.13;0.70;;;7.80;99.90;;;;;;4994291;28;20453;-93
2023/01/12 06:16:15;;;;;;;5.87;1.00;;;;;;;;;;4995412;28;20464;-93
2023/01/12 06:18:41;;;;;;;3.37;1.13;;;;;;;;;;4994963;28;20502;-88
2023/01/12 06:21:07;;;;;;;2.00;0.70;;;7.90;99.90;;;;;;4995089;28;20403;-92
2023/01/12 06:23:33;;;;;;;3.10;0.93;;;;;;;;;;5009715;28;20430;-91
2023/01/12 06:26:00;;;;;;;4.13;0.87;;;7.90;99.90;;;;;;4994948;28;20883;-93
2023/01/12 06:28:26;;;;;;;1.77;0.80;;;7.90;99.90;;;;;;4995131;28;20460;-92
2023/01/12 06:31:00;;;;;;;6.77;1.00;;;7.90;99.90;;;;;;5011025;28;20973;-93
2023/01/12 06:33:27;;;;;;;2.00;0.40;;;7.90;99.90;;;;;;4995218;28;20428;-94
2023/01/12 06:35:54;;;;;;;4.43;1.50;;;7.90;99.90;;;;;;4997449;28;20428;-93
2023/01/12 06:38:22;;;;;;;3.10;1.17;;;;;;;;;;5010111;28;20447;-93
2023/01/12 06:40:49;;;;;;;6.60;1.50;;;;;;;;;;4994220;28;21169;-94
2023/01/12 06:43:15;;;;;;;7.97;1.20;;;7.90;99.90;;;;;;4994946;28;20400;-93
2023/01/12 06:45:44;;;;;;;2.30;0.70;;;;;;;;;;4995418;28;20430;-90
2023/01/12 06:48:12;;;;;;;1.97;1.13;;;;;;;;;;4951793;28;20192;-93
2023/01/12 06:50:39;;;;;;;2.10;0.80;;;;;;;;;;5006930;28;20416;-89
2023/01/12 06:53:05;;;;;;;3.07;1.10;;;7.80;99.90;;;;;;5006677;28;20416;-87
2023/01/12 06:55:31;;;;;;;3.53;1.10;;;8.10;99.90;;;;;;4975429;28;20420;-93
2023/01/12 06:58:05;;;;;;;2.30;1.07;;;8.10;99.90;;;;;;4974772;28;20428;-93
2023/01/12 07:00:32;;;;;;;2.40;0.80;;;;;;;;;;5007176;28;20176;-94
2023/01/12 07:03:00;;;;;;;4.00;1.33;;;8.00;99.90;;;;;;5006891;28;20510;-92
2023/01/12 07:05:25;;;;;;;3.23;1.43;;;8.10;99.90;;;;;;4990250;28;20436;-92
2023/01/12 07:07:59;;;;;;;5.10;1.03;;;;;;;;;;4975187;28;20903;-94
2023/01/12 07:10:27;;;;;;;3.73;0.63;;;8.10;99.90;;;;;;5007080;28;20171;-92
2023/01/12 07:12:58;;;;;;;2.57;1.50;;;8.10;99.90;;;;;;4990433;28;20423;-84
2023/01/12 07:15:23;;;;;;;2.20;0.73;;;8.10;99.90;;;;;;4989845;28;20410;-91
2023/01/12 07:17:57;;;;;;;2.50;1.10;;;8.30;99.90;;;;;;4989914;28;20425;-92
2023/01/12 07:20:24;;;;;;;1.90;0.50;;;8.10;99.90;;;;;;4996189;28;20221;-88
2023/01/12 07:22:50;;;;;;;2.13;0.97;;;;;;;;;;4980118;28;20421;-91
2023/01/12 07:25:17;;;;;;;3.40;0.57;;;;;;;;;;5009923;28;20426;-92
2023/01/12 07:27:50;;;;;;;2.83;0.77;;;;;;;;;;5009114;28;20472;-92
2023/01/12 07:30:16;;;;;;;2.93;0.40;;;;;;;;;;5007563;28;20446;-90
2023/01/12 07:32:42;;;;;;;2.30;0.67;;;;;;;;;;5008941;28;20420;-91
2023/01/12 07:35:08;;;;;;;2.87;0.77;;;8.20;99.90;;;;;;5007564;28;20435;-94
2023/01/12 07:37:36;;;;;;;3.50;0.80;;;;;;;;;;4993851;28;20447;-93
2023/01/12 07:40:02;;;;;;;3.37;0.93;;;8.20;99.90;;;;;;5010707;28;20345;-86
2023/01/12 07:42:28;;;;;;;2.73;0.50;;;;;;;;;;4995632;28;20426;-93
2023/01/12 07:44:54;;;;;;;1.53;0.60;;;;;;;;;;5012639;28;20230;-85
2023/01/12 07:47:21;;;;;;;2.50;0.30;;;;;;;;;;5011561;28;20513;-85
2023/01/12 07:49:48;;;;;;;2.40;0.50;;;;;;;;;;4981835;28;20433;-85
2023/01/12 07:52:14;;;;;;;2.90;0.53;;;;;;;;;;5002816;28;20458;-86
2023/01/12 07:54:40;;;;;;;2.30;0.87;;;;;;;;;;5001389;28;20407;-90
2023/01/12 07:57:12;;;;;;;2.03;0.73;;;7.80;99.90;;;;;;4999441;28;20631;-92
2023/01/12 07:59:37;;;;;;;1.43;0.37;;;8.50;99.90;;;;;;4998405;28;20225;-91
2023/01/12 08:02:03;;;;;;;3.27;0.67;;;8.40;99.90;;;;;;4997257;28;20433;-92
2023/01/12 08:04:29;;;;;;;1.57;0.30;;;8.40;99.90;;;;;;4996727;28;20209;-91
2023/01/12 08:06:57;;;;;;;1.70;0.30;;;8.50;99.90;;;;;;5010502;28;20409;-93
2023/01/12 08:09:26;;;;;;;1.07;0.20;;;8.50;99.90;;;;;;4997919;28;20206;-93
2023/01/12 08:11:52;;;;;;;1.53;0.63;;;8.40;99.90;;;;;;5001120;28;20418;-88
2023/01/12 08:14:40;;;;;;;1.27;0.50;;;8.40;99.90;;;;;;4999383;28;20417;-94
2023/01/12 08:17:18;;;;;;;2.10;0.50;;;8.50;99.90;;;;;;4995109;28;20231;-91
2023/01/12 08:19:55;;;;;;;1.57;0.60;;;8.40;99.90;;;;;;4997660;28;20469;-94
2023/01/12 08:22:33;;;;;;;1.73;0.20;;;8.40;99.90;;;;;;4999017;28;20468;-95
2023/01/12 08:25:12;;;;;;;2.00;0.57;;;8.30;99.90;;;;;;5002107;28;20499;-93
2023/01/12 08:27:42;;;;;;;3.50;0.63;;;8.30;99.90;;;;;;5004414;28;20412;-94
2023/01/12 08:30:08;;;;;;;4.67;0.60;;;8.40;99.90;;;;;;4999266;28;20459;-91
2023/01/12 08:32:35;;;;;;;1.63;0.50;;;8.20;99.90;;;;;;4997803;28;20447;-94
2023/01/12 08:35:05;;;;;;;1.03;0.20;;;8.50;99.90;;;;;;4997317;28;20441;-94
2023/01/12 08:37:33;;;;;;;2.70;0.80;;;8.30;99.90;;;;;;4998218;28;20416;-93
2023/01/12 08:39:59;;;;;;;1.80;0.30;;;8.40;99.90;;;;;;4998309;28;20465;-91
2023/01/12 08:42:26;;;;;;;1.23;0.20;;;8.20;99.90;;;;;;4997442;28;20415;-91
2023/01/12 08:44:52;;;;;;;2.00;0.50;;;8.30;99.90;;;;;;4997296;28;20261;-92
2023/01/12 08:47:20;;;;;;;1.23;0.20;;;8.20;99.90;;;;;;4996814;28;20416;-87
2023/01/12 08:49:46;;;;;;;0.70;0.30;;;8.20;99.90;;;;;;4956385;28;20480;-90
2023/01/12 08:52:13;;;;;;;1.07;0.30;;;8.20;99.90;;;;;;4997080;28;20442;-90
2023/01/12 08:54:38;;;;;;;1.40;0.20;;;8.30;99.90;;;;;;4997524;28;20194;-95
2023/01/12 08:57:04;;;;;;;0.47;0.20;;;8.30;99.90;;;;;;5012522;28;20426;-94
2023/01/12 08:59:29;;;;;;;2.20;0.80;;;8.10;99.90;;;;;;4997484;28;20242;-93
2023/01/12 09:01:55;;;;;;;0.30;0.20;;;8.20;99.90;;;;;;4998104;28;20181;-93
2023/01/12 09:04:21;;;;;;;1.43;0.20;;;8.20;99.90;;;;;;4999173;28;20175;-96
2023/01/12 09:06:47;;;;;;;0.30;0.20;;;8.10;99.90;;;;;;5001174;28;20421;-91
2023/01/12 09:09:16;;;;;;;0.40;0.20;;;8.10;99.90;;;;;;5018014;28;20175;-94
2023/01/12 09:11:43;;;;;;;1.63;0.20;;;8.10;99.90;;;;;;5007615;28;20418;-95
2023/01/12 09:14:10;;;;;;;0.70;0.20;;;8.10;99.90;;;;;;5003806;28;20421;-95
2023/01/12 09:16:35;;;;;;;0.47;0.20;;;8.20;99.90;;;;;;5001817;28;20559;-92
2023/01/12 09:19:01;;;;;;;0.40;0.20;;;8.20;99.90;;;;;;5001713;28;20516;-94
2023/01/12 09:21:29;;;;;;;0.30;0.20;;;8.20;99.90;;;;;;5018843;28;20207;-93
2023/01/12 09:23:55;;;;;;;0.60;0.20;;;8.10;99.90;;;;;;5002976;28;20175;-92
2023/01/12 09:26:25;;;;;;;0.40;0.20;;;8.20;99.90;;;;;;5002399;28;20445;-93
2023/01/12 09:28:51;;;;;;;1.37;0.20;;;8.30;99.90;;;;;;5028836;28;20430;-94
2023/01/12 09:31:22;;;;;;;0.60;0.20;;;8.20;99.90;;;;;;5013361;28;20477;-94
2023/01/12 09:33:48;;;;;;;0.70;0.20;;;8.10;99.90;;;;;;5016954;28;20159;-89
2023/01/12 09:36:19;;;;;;;0.40;0.20;;;8.20;99.90;;;;;;5009643;28;20430;-93
2023/01/12 09:38:45;;;;;;;0.50;0.20;;;8.30;99.90;;;;;;5001536;28;20456;-94
2023/01/12 09:47:43;;;;;;;1.93;0.20;;;8.40;99.90;;;;;;5010532;28;20441;-94
2023/01/12 09:50:16;;;;;;;0.30;0.10;;;8.20;99.90;;;;;;5012984;28;20414;-95
2023/01/12 09:52:55;;;;;;;1.00;0.20;;;8.40;99.90;;;;;;5011409;28;20428;-93
2023/01/12 09:55:42;;;;;;;2.87;0.20;;;8.50;99.90;;;;;;5026250;28;20466;-96
2023/01/12 09:58:32;;;;;;;0.30;0.20;;;8.50;99.90;;;;;;5006512;28;20453;-95
2023/01/12 10:01:00;;;;;;;0.30;0.20;;;8.90;99.90;;;;;;5019762;28;20438;-94
2023/01/12 10:03:37;;;;;;;3.43;0.30;;;8.50;99.90;;;;;;5020741;28;20441;-95
2023/01/12 10:06:04;;;;;;;0.70;0.50;;;8.50;99.90;;;;;;5015876;28;20436;-92
2023/01/12 10:08:55;;;;;;;2.00;0.20;;;8.60;99.90;;;;;;5002765;28;20423;-95
2023/01/12 10:11:34;;;;;;;1.13;0.20;;;;;;;;;;4997512;28;20518;-93
2023/01/12 10:14:08;;;;;;;0.30;0.20;;;8.50;99.90;;;;;;5006620;28;20436;-96
2023/01/12 10:16:59;;;;;;;0.47;0.20;;;8.60;99.90;;;;;;5007924;28;20456;-95
2023/01/12 10:19:34;;;;;;;0.57;0.20;;;;;;;;;;5025308;28;20488;-92
2023/01/12 10:22:03;;;;;;;0.47;0.10;;;;;;;;;;5102790;23;20403;-87
2023/01/12 10:24:29;;;;;;;2.73;0.60;;;;;;;;;;5143765;23;20505;-92
2023/01/12 10:27:04;;;;;;;0.30;0.20;;;;;;;;;;5021784;28;20509;-95
2023/01/12 10:29:31;;;;;;;0.80;0.20;;;;;;;;;;5021443;28;20414;-94
2023/01/12 10:31:57;;;;;;;1.57;1.57;;;;;;;;;;5008413;28;20434;-94
2023/01/12 10:34:23;;;;;;;0.30;0.20;;;;;;;;;;5013416;28;20432;-92
2023/01/12 10:36:53;;;;;;;1.63;0.80;;;;;;;;;;5011773;28;20429;-93
2023/01/12 10:39:32;;;;;;;0.83;0.20;;;;;;;;;;5010627;28;20484;-94
2023/01/12 10:44:32;;;;;;;0.40;0.20;;;9.10;99.90;;;;;;5030611;28;20470;-95
2023/01/12 10:47:09;;;;;;;0.40;0.20;;;8.80;99.90;;;;;;5032256;28;20476;-95
2023/01/12 10:49:34;;;;;;;0.50;0.20;;;9.50;99.90;;;;;;5026579;28;20159;-96
2023/01/12 10:52:08;;;;;;;0.40;0.20;;;8.80;99.90;;;;;;5024857;28;20508;-90
2023/01/12 10:54:37;;;;;;;0.40;0.20;;;9.10;99.90;;;;;;5014200;28;20179;-94
2023/01/12 10:57:02;;;;;;;0.40;0.20;;;9.10;99.90;;;;;;5022236;28;20450;-93
2023/01/12 10:59:31;;;;;;;0.40;0.20;;;9.10;99.90;;;;;;4997784;28;20472;-94
2023/01/12 11:02:16;;;;;;;0.83;0.20;;;9.10;99.90;;;;;;5001739;28;20176;-93
2023/01/12 11:04:47;;;;;;;0.30;0.20;;;9.20;99.90;;;;;;5019449;28;20438;-90
2023/01/12 11:09:47;;;;;;;0.70;0.20;;;9.10;99.90;;;;;;5082888;23;20503;-94
2023/01/12 11:12:19;;;;;;;1.00;0.30;;;9.10;99.90;;;;;;5018558;28;20478;-91
2023/01/12 11:15:02;;;;;;;1.63;0.20;;;9.20;99.90;;;;;;5031475;28;20178;-91
2023/01/12 11:17:48;;;;;;;0.53;0.20;;;9.30;99.90;;;;;;5031859;28;20414;-92
2023/01/12 11:20:26;;;;;;;0.80;0.30;;;9.30;99.90;;;;;;5031887;28;20473;-91
2023/01/12 11:22:56;;;;;;;0.50;0.23;;;9.30;99.90;;;;;;5017757;28;20493;-94
2023/01/12 11:25:27;;;;;;;0.60;0.40;;;;;;;;;;5002246;28;20430;-93
2023/01/12 11:28:12;;;;;;;3.03;0.20;;;;;;;;;;5029658;28;20396;-91
2023/01/12 11:30:53;;;;;;;1.33;0.30;;;;;;;;;;5006704;28;20413;-92
2023/01/12 11:33:21;;;;;;;0.30;0.20;;;;;;;;;;5009022;28;20422;-92
2023/01/12 11:36:11;;;;;;;0.60;0.20;;;9.10;99.90;;;;;;5012493;28;20419;-94
2023/01/12 11:38:40;;;;;;;2.07;0.20;;;;;;;;;;5018130;28;20462;-93
2023/01/12 11:41:13;;;;;;;0.70;0.30;;;;;;;;;;5016555;28;20494;-94
2023/01/12 11:43:58;;;;;;;0.30;0.20;;;;;;;;;;5036436;28;20406;-91
2023/01/12 11:46:41;;;;;;;0.57;0.20;;;9.60;99.90;;;;;;5019434;28;20418;-92
2023/01/12 11:49:31;;;;;;;0.80;0.20;;;9.50;99.90;;;;;;5028522;28;20423;-90
2023/01/12 11:51:58;;;;;;;0.50;0.40;;;;;;;;;;5022148;28;20423;-91
2023/01/12 11:54:50;;;;;;;0.40;0.20;;;;;;;;;;5036774;28;20395;-88
2023/01/12 11:57:40;;;;;;;0.97;0.30;;;;;;;;;;5021800;28;20412;-90
2023/01/12 12:00:13;;;;;;;0.60;0.20;;;;;;;;;;5037171;28;20470;-92
2023/01/12 12:03:05;;;;;;;0.90;0.20;;;;;;;;;;5001272;28;20974;-92
2023/01/12 12:05:40;;;;;;;0.40;0.20;;;;;;;;;;4985107;28;20408;-93
2023/01/12 12:08:09;;;;;;;1.00;0.20;;;;;;;;;;4994986;28;20506;-92
2023/01/12 12:10:44;;;;;;;0.87;0.20;;;;;;;;;;4980620;28;20941;-94
2023/01/12 12:13:16;;;;;;;0.40;0.20;;;;;;;;;;4980468;28;20422;-93
2023/01/12 12:15:45;;;;;;;1.10;0.30;;;;;;;;;;4980468;28;21002;-94
2023/01/12 12:18:27;;;;;;;0.40;0.20;;;;;;;;;;5001654;28;20411;-94
2023/01/12 12:21:02;;;;;;;0.50;0.20;;;10.10;99.90;;;;;;4985981;28;20517;-93
2023/01/12 12:24:08;;;;;;;0.30;0.10;;;10.00;99.90;;;;;;4997487;28;20458;-93
2023/01/12 12:26:37;;;;;;;0.30;0.20;;;10.00;99.90;;;;;;4980077;28;20979;-91
2023/01/12 12:29:17;;;;;;;0.37;0.20;;;9.90;99.90;;;;;;4980662;28;20411;-92
2023/01/12 12:32:26;;;;;;;0.53;0.20;;;10.00;99.90;;;;;;4998835;28;20408;-91
2023/01/12 12:35:00;;;;;;;0.80;0.20;;;10.00;99.90;;;;;;5005728;28;20401;-91
2023/01/12 12:38:07;;;;;;;0.47;0.20;;;10.00;99.90;;;;;;5001396;28;20427;-91
2023/01/12 12:46:47;;;;;;;0.40;0.20;;;10.30;99.90;;;;;;5001150;28;20443;-94
2023/01/12 12:49:18;;;;;;;0.30;0.10;;;10.20;99.90;;;;;;4981457;28;20412;-92
2023/01/12 12:51:45;;;;;;;0.63;0.30;;;10.10;99.90;;;;;;5005795;28;20419;-93
2023/01/12 12:54:19;;;;;;;1.37;0.20;;;10.30;99.90;;;;;;4985547;28;20427;-94
2023/01/12 12:56:47;;;;;;;1.00;0.20;;;10.10;99.90;;;;;;5007115;28;20426;-93
2023/01/12 12:59:37;;;;;;;0.53;0.30;;;10.20;99.90;;;;;;5001579;28;20549;-94
2023/01/12 13:02:03;;;;;;;0.30;0.20;;;10.10;99.90;;;;;;4985598;28;20437;-95
2023/01/12 13:04:45;;;;;;;0.60;0.20;;;10.10;99.90;;;;;;4984462;28;20487;-94
2023/01/12 13:07:19;;;;;;;0.70;0.20;;;10.10;99.90;;;;;;5001832;28;20424;-84
2023/01/12 13:09:45;;;;;;;0.50;0.20;;;10.10;99.90;;;;;;5036231;28;20482;-83
2023/01/12 13:12:31;;;;;;;0.70;0.20;;;10.00;99.90;;;;;;5038278;28;20413;-84
2023/01/12 13:20:55;;;;;;;0.50;0.20;;;9.90;99.90;;;;;;5038478;28;20268;-83
2023/01/12 13:23:40;;;;;;;0.50;0.20;;;10.30;99.90;;;;;;5039491;28;20469;-83
2023/01/12 13:31:36;;;;;;;0.83;0.30;;;10.30;99.90;;;;;;4640458;26;20486;-87
2023/01/12 13:34:30;;;;;;;0.50;0.20;;;9.90;99.90;;;;;;5002746;28;20430;-85
2023/01/12 13:37:22;;;;;;;0.70;0.20;;;10.40;99.90;;;;;;5005849;28;20399;-92
2023/01/12 13:39:58;;;;;;;1.53;0.20;;;10.20;99.90;;;;;;5002618;28;20442;-94
2023/01/12 13:45:16;;;;;;;3.20;0.20;;;10.40;99.90;;;;;;4995110;28;20440;-87
2023/01/12 13:47:43;;;;;;;4.93;0.40;;;10.50;99.90;;;;;;4995114;28;20511;-86
2023/01/12 13:50:19;;;;;;;0.80;0.20;;;10.60;99.90;;;;;;4995051;28;20771;-86
2023/01/12 13:52:56;;;;;;;0.70;0.30;;;10.50;99.90;;;;;;4995016;28;20419;-93
2023/01/12 13:55:26;;;;;;;0.47;0.20;;;10.50;99.90;;;;;;4995367;28;20501;-89
2023/01/12 13:58:17;;;;;;;3.33;0.30;;;10.50;99.90;;;;;;4994869;28;20408;-87
2023/01/12 14:01:08;;;;;;;0.97;0.20;;;10.50;99.90;;;;;;4999758;28;20440;-94
2023/01/12 14:03:58;;;;;;;2.50;0.33;;;10.60;99.90;;;;;;5004235;28;20922;-89
2023/01/12 14:06:30;;;;;;;0.40;0.20;;;12.00;99.90;;;;;;5006271;28;20416;-92
2023/01/12 14:09:07;;;;;;;2.13;0.40;;;11.10;99.90;;;;;;5004574;28;20464;-90
2023/01/12 14:12:07;;;;;;;4.70;0.53;;;10.70;99.90;;;;;;5007980;28;20517;-86
2023/01/12 14:17:56;;;;;;;1.70;0.40;;;10.80;99.90;;;;;;5015135;28;20433;-94
2023/01/12 14:20:29;;;;;;;1.37;0.20;;;10.60;99.90;;;;;;5020336;28;20478;-87
2023/01/12 14:23:16;;;;;;;0.60;0.27;;;10.40;99.90;;;;;;5010161;28;20419;-91
2023/01/12 14:25:42;;;;;;;1.90;0.20;;;10.30;99.90;;;;;;5021798;28;20439;-87
2023/01/12 14:28:19;;;;;;;1.90;0.30;;;10.50;99.90;;;;;;5027499;28;20418;-93
2023/01/12 14:30:50;;;;;;;0.93;0.30;;;10.50;99.90;;;;;;5022907;28;20470;-82
2023/01/12 14:33:19;;;;;;;3.73;0.60;;;10.50;99.90;;;;;;5023633;28;20401;-82
2023/01/12 14:35:50;;;;;;;1.50;0.20;;;10.50;99.90;;;;;;5023317;28;20407;-83
2023/01/12 14:38:18;;;;;;;0.60;0.30;;;10.40;99.90;;;;;;4990921;28;21053;-82
2023/01/12 14:40:52;;;;;;;0.83;0.30;;;10.40;99.90;;;;;;5014493;28;20427;-94
2023/01/12 14:48:55;;;;;;;0.60;0.40;;;10.50;99.90;;;;;;5014807;28;20419;-89
2023/01/12 14:51:35;;;;;;;2.80;0.40;;;10.50;99.90;;;;;;5012706;28;20425;-95